MST,Max TemperatureF,Mean TemperatureF,Min TemperatureF,Max Dew PointF,MeanDew PointF,Min DewpointF,Max Humidity, Mean Humidity, Min Humidity, Max Sea Level PressureIn, Mean Sea Level PressureIn, Min Sea Level PressureIn, Max VisibilityMiles, Mean VisibilityMiles, Min VisibilityMiles, Max Wind SpeedMPH, Mean Wind SpeedMPH, Max Gust SpeedMPH,PrecipitationIn, CloudCover, Events, WindDirDegrees
2012-10-1,87,68,48,34,29,25,48,26,11,30.07,29.98,29.92,10,10,8,12,5,,0.00,0,,191
2012-10-2,87,69,51,32,27,23,45,23,10,29.99,29.91,29.85,10,10,10,15,5,24,0.00,0,,217
2012-10-3,86,70,54,36,29,24,41,24,11,29.97,29.92,29.87,10,10,6,15,5,28,0.00,0,,216
2012-10-4,81,66,52,37,32,25,47,31,13,30.05,30.00,29.96,10,10,10,21,8,31,0.00,0,,204
2012-10-5,80,64,48,33,29,25,50,29,14,30.03,29.96,29.90,10,10,10,15,7,23,0.00,0,,198
2012-10-6,77,64,50,36,30,24,57,31,16,29.94,29.88,29.83,10,10,10,13,7,,0.00,0,,195
2012-10-7,79,64,48,37,32,28,50,33,17,29.94,29.89,29.83,10,10,10,10,4,17,0.00,0,,202
2012-10-8,77,62,48,40,37,29,71,40,17,29.96,29.91,29.86,10,10,10,14,5,21,0.00,0,,189
2012-10-9,77,62,48,47,38,29,77,43,18,29.97,29.91,29.86,10,10,7,13,6,16,0.00,0,,190
2012-10-10,73,60,48,44,39,35,69,48,26,29.97,29.91,29.85,10,10,6,16,8,25,0.00,1,,174
2012-10-11,70,59,48,52,45,38,89,68,36,29.92,29.85,29.79,10,10,10,25,8,36,0.07,4,Rain,159
2012-10-12,55,48,39,46,38,32,93,69,42,30.10,29.98,29.81,10,10,8,13,8,26,0.06,4,Rain,202
2012-10-13,68,52,36,38,35,31,86,60,32,30.18,30.12,30.05,10,10,10,10,5,16,0.00,0,,263
2012-10-14,75,59,43,39,35,29,80,47,18,30.18,30.10,30.03,10,10,10,12,5,21,0.00,0,,183
2012-10-15,79,62,44,36,30,22,65,37,12,30.06,29.99,29.89,10,10,10,9,4,,0.00,0,,204
2012-10-16,81,64,46,35,29,20,61,31,10,29.95,29.86,29.77,10,10,8,14,6,17,0.00,0,,224
2012-10-17,81,64,48,38,30,25,59,32,14,29.96,29.88,29.83,10,10,10,13,5,,0.00,0,,234
2012-10-18,79,60,41,35,21,1,58,30,5,30.06,30.00,29.96,10,10,10,8,4,,0.00,0,,215
2012-10-19,82,62,42,25,20,13,45,25,7,30.03,29.93,29.84,10,10,10,10,4,,0.00,0,,196
2012-10-20,75,60,45,33,27,21,52,30,19,29.86,29.81,29.75,10,10,10,15,5,24,0.00,0,,205
2012-10-21,71,58,45,48,40,34,72,50,26,29.84,29.80,29.76,10,10,10,17,7,23,0.00,2,,192
2012-10-22,69,58,46,48,43,37,86,57,32,29.89,29.85,29.79,10,10,10,15,7,22,0.00,1,,171
2012-10-23,68,59,50,46,40,34,83,54,28,29.89,29.83,29.79,10,10,10,13,7,23,0.00,1,,173
2012-10-24,66,55,39,35,22,10,68,32,12,29.97,29.86,29.79,10,10,10,17,8,28,0.00,0,,209
2012-10-25,66,50,34,23,15,10,57,29,13,30.09,30.03,29.96,10,10,9,12,6,18,0.00,0,,312
2012-10-26,64,50,36,17,10,2,46,25,8,30.15,30.08,30.00,10,10,7,14,6,,0.00,0,,314
2012-10-27,73,52,32,20,9,4,38,22,8,30.09,30.02,29.93,10,10,9,8,4,,0.00,0,Snow,238
2012-10-28,75,56,36,21,14,10,45,24,8,30.09,30.03,29.97,10,10,9,8,4,,0.00,0,Snow,202
2012-10-29,75,57,39,23,15,9,42,23,8,30.15,30.09,30.04,10,10,9,8,5,,0.00,0,,197
2012-10-30,75,56,37,23,15,6,43,24,7,30.14,30.06,29.99,10,10,10,9,5,,0.00,0,,208
2012-10-31,75,56,37,20,15,9,39,24,8,30.09,30.01,29.94,10,10,9,12,4,16,0.00,0,,175